sensor_id;sensor_type;location;lat;lon;timestamp;pressure;altitude;pressure_sealevel;temperature;humidity
7768;BME280;3928;42.626;23.382;2022-09-30T00:01:22;93845.91;;;17.30;100.00
7768;BME280;3928;42.626;23.382;2022-09-30T00:03:50;93855.97;;;17.36;100.00
7768;BME280;3928;42.626;23.382;2022-09-30T00:06:18;93865.34;;;17.39;100.00
7768;BME280;3928;42.626;23.382;2022-09-30T00:08:46;93866.19;;;17.39;100.00
7768;BME280;3928;42.626;23.382;2022-09-30T00:11:15;93876.34;;;17.44;100.00
7768;BME280;3928;42.626;23.382;2022-09-30T00:13:43;93884.56;;;17.35;100.00
7768;BME280;3928;42.626;23.382;2022-09-30T00:16:12;93876.72;;;17.19;100.00
7768;BME280;3928;42.626;23.382;2022-09-30T00:18:40;93869.84;;;17.18;100.00
7768;BME280;3928;42.626;23.382;2022-09-30T00:21:08;93868.19;;;17.17;100.00
7768;BME280;3928;42.626;23.382;2022-09-30T00:23:38;93871.38;;;17.22;100.00
7768;BME280;3928;42.626;23.382;2022-09-30T00:26:10;93866.56;;;17.14;100.00
7768;BME280;3928;42.626;23.382;2022-09-30T00:28:38;93857.50;;;17.06;100.00
7768;BME280;3928;42.626;23.382;2022-09-30T00:31:07;93869.00;;;17.17;100.00
7768;BME280;3928;42.626;23.382;2022-09-30T00:33:35;93877.47;;;17.21;100.00
7768;BME280;3928;42.626;23.382;2022-09-30T00:36:04;93891.72;;;16.95;100.00
7768;BME280;3928;42.626;23.382;2022-09-30T00:38:31;93882.03;;;16.80;100.00
7768;BME280;3928;42.626;23.382;2022-09-30T00:41:02;93872.81;;;16.74;100.00
7768;BME280;3928;42.626;23.382;2022-09-30T00:43:42;93884.84;;;16.56;100.00
7768;BME280;3928;42.626;23.382;2022-09-30T00:46:17;93871.50;;;16.47;100.00
7768;BME280;3928;42.626;23.382;2022-09-30T00:48:48;93856.56;;;16.52;100.00
7768;BME280;3928;42.626;23.382;2022-09-30T00:51:22;93860.41;;;16.62;100.00
7768;BME280;3928;42.626;23.382;2022-09-30T00:53:55;93861.47;;;16.58;100.00
7768;BME280;3928;42.626;23.382;2022-09-30T00:56:26;93867.63;;;16.55;100.00
7768;BME280;3928;42.626;23.382;2022-09-30T00:58:55;93874.22;;;16.62;100.00
7768;BME280;3928;42.626;23.382;2022-09-30T01:01:25;93870.63;;;16.65;100.00
7768;BME280;3928;42.626;23.382;2022-09-30T01:03:56;93862.63;;;16.71;100.00
7768;BME280;3928;42.626;23.382;2022-09-30T01:06:24;93868.47;;;16.75;100.00
7768;BME280;3928;42.626;23.382;2022-09-30T01:08:52;93871.06;;;16.75;100.00
7768;BME280;3928;42.626;23.382;2022-09-30T01:11:20;93873.06;;;16.70;100.00
7768;BME280;3928;42.626;23.382;2022-09-30T01:13:51;93858.66;;;16.62;100.00
7768;BME280;3928;42.626;23.382;2022-09-30T01:16:31;93872.25;;;16.67;100.00
7768;BME280;3928;42.626;23.382;2022-09-30T01:19:23;93870.13;;;16.57;100.00
7768;BME280;3928;42.626;23.382;2022-09-30T01:22:09;93877.22;;;16.53;100.00
7768;BME280;3928;42.626;23.382;2022-09-30T01:25:09;93869.03;;;16.44;100.00
7768;BME280;3928;42.626;23.382;2022-09-30T01:30:44;93861.06;;;16.29;100.00
7768;BME280;3928;42.626;23.382;2022-09-30T01:33:31;93871.56;;;16.26;100.00
7768;BME280;3928;42.626;23.382;2022-09-30T01:36:16;93859.25;;;16.13;100.00
7768;BME280;3928;42.626;23.382;2022-09-30T01:38:50;93884.41;;;16.09;100.00
7768;BME280;3928;42.626;23.382;2022-09-30T01:41:24;93860.50;;;16.04;100.00
7768;BME280;3928;42.626;23.382;2022-09-30T01:43:58;93853.06;;;15.96;100.00
7768;BME280;3928;42.626;23.382;2022-09-30T01:46:32;93871.84;;;16.01;100.00
7768;BME280;3928;42.626;23.382;2022-09-30T01:49:08;93852.06;;;15.80;100.00
7768;BME280;3928;42.626;23.382;2022-09-30T01:51:44;93860.00;;;15.96;100.00
7768;BME280;3928;42.626;23.382;2022-09-30T01:54:19;93871.41;;;15.92;100.00
7768;BME280;3928;42.626;23.382;2022-09-30T01:56:51;93878.78;;;15.81;100.00
7768;BME280;3928;42.626;23.382;2022-09-30T01:59:24;93873.34;;;15.87;100.00
7768;BME280;3928;42.626;23.382;2022-09-30T02:01:56;93848.22;;;15.70;100.00
7768;BME280;3928;42.626;23.382;2022-09-30T02:04:29;93864.63;;;15.69;100.00
7768;BME280;3928;42.626;23.382;2022-09-30T02:07:02;93867.59;;;15.80;100.00
7768;BME280;3928;42.626;23.382;2022-09-30T02:09:35;93868.28;;;15.84;100.00
7768;BME280;3928;42.626;23.382;2022-09-30T02:12:07;93860.53;;;15.84;100.00
7768;BME280;3928;42.626;23.382;2022-09-30T02:14:40;93869.03;;;15.87;100.00
7768;BME280;3928;42.626;23.382;2022-09-30T02:17:14;93881.69;;;15.73;100.00
7768;BME280;3928;42.626;23.382;2022-09-30T02:19:47;93879.19;;;15.71;100.00
7768;BME280;3928;42.626;23.382;2022-09-30T02:22:18;93877.03;;;15.81;100.00
7768;BME280;3928;42.626;23.382;2022-09-30T02:24:50;93865.34;;;15.72;100.00
7768;BME280;3928;42.626;23.382;2022-09-30T02:27:24;93879.19;;;15.71;100.00
7768;BME280;3928;42.626;23.382;2022-09-30T02:29:56;93885.91;;;15.75;100.00
7768;BME280;3928;42.626;23.382;2022-09-30T02:32:30;93887.59;;;15.76;100.00
7768;BME280;3928;42.626;23.382;2022-09-30T02:35:03;93888.88;;;15.87;100.00
7768;BME280;3928;42.626;23.382;2022-09-30T02:37:35;93897.28;;;15.92;100.00
7768;BME280;3928;42.626;23.382;2022-09-30T02:40:07;93888.88;;;15.87;100.00
7768;BME280;3928;42.626;23.382;2022-09-30T02:42:37;93873.97;;;15.92;100.00
7768;BME280;3928;42.626;23.382;2022-09-30T02:45:08;93877.66;;;15.86;100.00
7768;BME280;3928;42.626;23.382;2022-09-30T02:47:47;93893.66;;;15.55;100.00
7768;BME280;3928;42.626;23.382;2022-09-30T02:50:19;93873.94;;;15.53;100.00
7768;BME280;3928;42.626;23.382;2022-09-30T02:53:00;93862.44;;;15.60;100.00
7768;BME280;3928;42.626;23.382;2022-09-30T02:55:37;93872.94;;;15.35;100.00
7768;BME280;3928;42.626;23.382;2022-09-30T02:58:10;93783.50;;;14.70;100.00
7768;BME280;3928;42.626;23.382;2022-09-30T03:00:39;93879.94;;;15.33;100.00
7768;BME280;3928;42.626;23.382;2022-09-30T03:03:11;93886.34;;;15.44;100.00
7768;BME280;3928;42.626;23.382;2022-09-30T03:05:41;93894.09;;;15.44;100.00
7768;BME280;3928;42.626;23.382;2022-09-30T03:08:09;93887.41;;;15.39;100.00
7768;BME280;3928;42.626;23.382;2022-09-30T03:10:36;93891.44;;;15.46;100.00
7768;BME280;3928;42.626;23.382;2022-09-30T03:13:22;93906.06;;;15.47;100.00
7768;BME280;3928;42.626;23.382;2022-09-30T03:16:01;93908.56;;;15.48;100.00
7768;BME280;3928;42.626;23.382;2022-09-30T03:18:39;93890.53;;;15.47;100.00
7768;BME280;3928;42.626;23.382;2022-09-30T03:21:22;93903.75;;;15.61;100.00
7768;BME280;3928;42.626;23.382;2022-09-30T03:27:07;93907.56;;;15.73;100.00
7768;BME280;3928;42.626;23.382;2022-09-30T03:29:45;93909.03;;;15.58;100.00
7768;BME280;3928;42.626;23.382;2022-09-30T03:32:26;93901.41;;;15.55;100.00
7768;BME280;3928;42.626;23.382;2022-09-30T03:35:05;93913.38;;;15.58;100.00
7768;BME280;3928;42.626;23.382;2022-09-30T03:37:42;93913.28;;;15.39;100.00
7768;BME280;3928;42.626;23.382;2022-09-30T03:40:17;93913.56;;;15.33;100.00
7768;BME280;3928;42.626;23.382;2022-09-30T03:42:50;93874.16;;;15.26;100.00
7768;BME280;3928;42.626;23.382;2022-09-30T03:45:22;93902.50;;;15.49;100.00
7768;BME280;3928;42.626;23.382;2022-09-30T03:47:57;93905.81;;;15.53;100.00
7768;BME280;3928;42.626;23.382;2022-09-30T03:50:27;93927.13;;;15.58;100.00
7768;BME280;3928;42.626;23.382;2022-09-30T03:52:56;93920.28;;;15.57;100.00
7768;BME280;3928;42.626;23.382;2022-09-30T03:55:23;93928.69;;;15.64;100.00
7768;BME280;3928;42.626;23.382;2022-09-30T03:57:51;93926.94;;;15.64;100.00
7768;BME280;3928;42.626;23.382;2022-09-30T04:00:19;93915.78;;;15.62;100.00
7768;BME280;3928;42.626;23.382;2022-09-30T04:02:46;93927.41;;;15.72;100.00
7768;BME280;3928;42.626;23.382;2022-09-30T04:05:16;93917.34;;;15.66;100.00
7768;BME280;3928;42.626;23.382;2022-09-30T04:07:44;93938.53;;;15.74;100.00
7768;BME280;3928;42.626;23.382;2022-09-30T04:10:11;93933.38;;;15.74;100.00
7768;BME280;3928;42.626;23.382;2022-09-30T04:12:38;93936.75;;;15.76;100.00
7768;BME280;3928;42.626;23.382;2022-09-30T04:15:06;93932.50;;;15.75;100.00
7768;BME280;3928;42.626;23.382;2022-09-30T04:17:33;93918.66;;;15.76;100.00
7768;BME280;3928;42.626;23.382;2022-09-30T04:20:00;93934.28;;;15.73;100.00
7768;BME280;3928;42.626;23.382;2022-09-30T04:22:28;93930.53;;;15.60;100.00
7768;BME280;3928;42.626;23.382;2022-09-30T04:24:56;93915.88;;;15.59;100.00
7768;BME280;3928;42.626;23.382;2022-09-30T04:27:23;93918.44;;;15.61;100.00
7768;BME280;3928;42.626;23.382;2022-09-30T04:29:50;93918.31;;;15.64;100.00
7768;BME280;3928;42.626;23.382;2022-09-30T04:32:17;93936.47;;;15.62;100.00
7768;BME280;3928;42.626;23.382;2022-09-30T04:34:44;93936.84;;;15.53;100.00
7768;BME280;3928;42.626;23.382;2022-09-30T04:37:10;93942.09;;;15.52;100.00
7768;BME280;3928;42.626;23.382;2022-09-30T04:39:38;93937.78;;;15.50;100.00
7768;BME280;3928;42.626;23.382;2022-09-30T04:42:07;93947.06;;;15.56;100.00
7768;BME280;3928;42.626;23.382;2022-09-30T04:44:36;93940.34;;;15.52;100.00
7768;BME280;3928;42.626;23.382;2022-09-30T04:47:03;93927.97;;;15.59;100.00
7768;BME280;3928;42.626;23.382;2022-09-30T04:49:31;93941.13;;;15.74;100.00
7768;BME280;3928;42.626;23.382;2022-09-30T04:51:58;93954.44;;;15.86;100.00
7768;BME280;3928;42.626;23.382;2022-09-30T04:54:25;93954.00;;;15.96;100.00
7768;BME280;3928;42.626;23.382;2022-09-30T04:56:53;93987.78;;;16.14;100.00
7768;BME280;3928;42.626;23.382;2022-09-30T04:59:21;93979.41;;;16.27;100.00
7768;BME280;3928;42.626;23.382;2022-09-30T05:01:48;93982.72;;;16.50;100.00
7768;BME280;3928;42.626;23.382;2022-09-30T05:04:15;93960.19;;;16.52;100.00
7768;BME280;3928;42.626;23.382;2022-09-30T05:06:44;93979.00;;;16.76;100.00
7768;BME280;3928;42.626;23.382;2022-09-30T05:09:11;93981.66;;;16.74;100.00
7768;BME280;3928;42.626;23.382;2022-09-30T05:11:38;93977.56;;;16.50;100.00
7768;BME280;3928;42.626;23.382;2022-09-30T05:14:07;93966.34;;;16.49;100.00
7768;BME280;3928;42.626;23.382;2022-09-30T05:16:35;93971.69;;;16.46;100.00
7768;BME280;3928;42.626;23.382;2022-09-30T05:19:02;93783.50;;;15.31;100.00
7768;BME280;3928;42.626;23.382;2022-09-30T05:21:29;93973.91;;;16.35;100.00
7768;BME280;3928;42.626;23.382;2022-09-30T05:23:56;93989.91;;;16.24;100.00
7768;BME280;3928;42.626;23.382;2022-09-30T05:26:23;93993.88;;;16.31;100.00
7768;BME280;3928;42.626;23.382;2022-09-30T05:28:50;94005.34;;;16.46;100.00
7768;BME280;3928;42.626;23.382;2022-09-30T05:31:18;94007.34;;;16.40;100.00
7768;BME280;3928;42.626;23.382;2022-09-30T05:33:47;94002.63;;;16.49;100.00
7768;BME280;3928;42.626;23.382;2022-09-30T05:36:15;94005.91;;;16.73;100.00
7768;BME280;3928;42.626;23.382;2022-09-30T05:38:44;94001.59;;;17.10;100.00
7768;BME280;3928;42.626;23.382;2022-09-30T05:41:12;94012.00;;;17.27;100.00
7768;BME280;3928;42.626;23.382;2022-09-30T05:43:41;94021.13;;;17.36;100.00
7768;BME280;3928;42.626;23.382;2022-09-30T05:46:09;93995.28;;;17.51;100.00
7768;BME280;3928;42.626;23.382;2022-09-30T05:48:38;94035.19;;;17.85;100.00
7768;BME280;3928;42.626;23.382;2022-09-30T05:51:06;94009.28;;;17.66;100.00
7768;BME280;3928;42.626;23.382;2022-09-30T05:53:35;94027.25;;;17.71;100.00
7768;BME280;3928;42.626;23.382;2022-09-30T05:56:03;94029.66;;;17.57;100.00
7768;BME280;3928;42.626;23.382;2022-09-30T05:58:30;94028.22;;;17.32;100.00
7768;BME280;3928;42.626;23.382;2022-09-30T06:01:03;94026.16;;;17.39;100.00
7768;BME280;3928;42.626;23.382;2022-09-30T06:03:31;94039.34;;;17.34;100.00
7768;BME280;3928;42.626;23.382;2022-09-30T06:05:58;94050.66;;;17.33;100.00
7768;BME280;3928;42.626;23.382;2022-09-30T06:08:26;94042.94;;;17.32;100.00
7768;BME280;3928;42.626;23.382;2022-09-30T06:10:53;94041.53;;;17.43;100.00
7768;BME280;3928;42.626;23.382;2022-09-30T06:13:20;94044.00;;;17.64;100.00
7768;BME280;3928;42.626;23.382;2022-09-30T06:15:54;94044.06;;;17.81;100.00
7768;BME280;3928;42.626;23.382;2022-09-30T06:18:22;94040.09;;;17.91;100.00
7768;BME280;3928;42.626;23.382;2022-09-30T06:20:50;94044.84;;;18.00;100.00
7768;BME280;3928;42.626;23.382;2022-09-30T06:23:16;94061.06;;;17.87;100.00
7768;BME280;3928;42.626;23.382;2022-09-30T06:25:49;94065.91;;;17.77;100.00
7768;BME280;3928;42.626;23.382;2022-09-30T06:28:15;94051.25;;;17.76;100.00
7768;BME280;3928;42.626;23.382;2022-09-30T06:30:43;93966.13;;;17.46;100.00
7768;BME280;3928;42.626;23.382;2022-09-30T06:33:11;94037.19;;;17.97;100.00
7768;BME280;3928;42.626;23.382;2022-09-30T06:35:37;94048.66;;;17.93;100.00
7768;BME280;3928;42.626;23.382;2022-09-30T06:38:05;94051.84;;;17.98;100.00
7768;BME280;3928;42.626;23.382;2022-09-30T06:40:32;94047.22;;;18.05;100.00
7768;BME280;3928;42.626;23.382;2022-09-30T06:43:01;94048.94;;;18.22;100.00
7768;BME280;3928;42.626;23.382;2022-09-30T06:45:28;94058.03;;;18.48;100.00
7768;BME280;3928;42.626;23.382;2022-09-30T06:47:57;94063.53;;;18.76;100.00
7768;BME280;3928;42.626;23.382;2022-09-30T06:50:25;94071.63;;;19.03;100.00
7768;BME280;3928;42.626;23.382;2022-09-30T06:52:56;94030.94;;;19.02;100.00
7768;BME280;3928;42.626;23.382;2022-09-30T06:55:23;94078.16;;;19.59;100.00
7768;BME280;3928;42.626;23.382;2022-09-30T06:57:51;94075.31;;;19.79;100.00
7768;BME280;3928;42.626;23.382;2022-09-30T07:00:19;94090.19;;;20.07;100.00
7768;BME280;3928;42.626;23.382;2022-09-30T07:02:46;94090.66;;;20.30;100.00
7768;BME280;3928;42.626;23.382;2022-09-30T07:05:14;94097.91;;;20.55;100.00
7768;BME280;3928;42.626;23.382;2022-09-30T07:07:41;94093.31;;;20.74;100.00
7768;BME280;3928;42.626;23.382;2022-09-30T07:10:09;94082.50;;;20.80;100.00
7768;BME280;3928;42.626;23.382;2022-09-30T07:12:36;94094.91;;;21.05;100.00
7768;BME280;3928;42.626;23.382;2022-09-30T07:15:03;94107.66;;;21.24;100.00
7768;BME280;3928;42.626;23.382;2022-09-30T07:17:31;94125.09;;;21.52;100.00
7768;BME280;3928;42.626;23.382;2022-09-30T07:19:58;94116.88;;;21.72;100.00
7768;BME280;3928;42.626;23.382;2022-09-30T07:22:25;94116.16;;;21.97;100.00
7768;BME280;3928;42.626;23.382;2022-09-30T07:24:57;94113.16;;;22.17;98.21
7768;BME280;3928;42.626;23.382;2022-09-30T07:27:25;94128.25;;;22.27;95.42
7768;BME280;3928;42.626;23.382;2022-09-30T07:29:53;94135.06;;;22.42;96.10
7768;BME280;3928;42.626;23.382;2022-09-30T07:32:20;94145.88;;;22.50;91.63
7768;BME280;3928;42.626;23.382;2022-09-30T07:34:49;94146.91;;;22.47;90.53
7768;BME280;3928;42.626;23.382;2022-09-30T07:37:17;94153.47;;;22.13;91.46
7768;BME280;3928;42.626;23.382;2022-09-30T07:39:46;94145.56;;;21.86;92.91
7768;BME280;3928;42.626;23.382;2022-09-30T07:42:17;94137.06;;;21.97;94.67
7768;BME280;3928;42.626;23.382;2022-09-30T07:44:46;94013.78;;;21.51;93.48
7768;BME280;3928;42.626;23.382;2022-09-30T07:47:14;94129.91;;;22.28;91.80
7768;BME280;3928;42.626;23.382;2022-09-30T07:49:42;94140.53;;;22.52;91.89
7768;BME280;3928;42.626;23.382;2022-09-30T07:52:12;94081.84;;;22.43;91.53
7768;BME280;3928;42.626;23.382;2022-09-30T07:54:40;94124.31;;;22.99;89.38
7768;BME280;3928;42.626;23.382;2022-09-30T07:57:07;94129.00;;;23.32;88.68
7768;BME280;3928;42.626;23.382;2022-09-30T07:59:36;94132.28;;;23.61;86.00
7768;BME280;3928;42.626;23.382;2022-09-30T08:02:03;94134.09;;;23.84;84.10
7768;BME280;3928;42.626;23.382;2022-09-30T08:04:30;94156.59;;;24.00;81.07
7768;BME280;3928;42.626;23.382;2022-09-30T08:06:58;94154.53;;;23.92;80.84
7768;BME280;3928;42.626;23.382;2022-09-30T08:09:29;94139.91;;;24.01;81.15
7768;BME280;3928;42.626;23.382;2022-09-30T08:11:56;94168.88;;;24.36;80.09
7768;BME280;3928;42.626;23.382;2022-09-30T08:14:25;94110.13;;;24.26;78.68
7768;BME280;3928;42.626;23.382;2022-09-30T08:16:52;94165.38;;;24.83;76.62
7768;BME280;3928;42.626;23.382;2022-09-30T08:19:22;94166.69;;;24.77;76.03
7768;BME280;3928;42.626;23.382;2022-09-30T08:21:49;94164.66;;;24.81;72.12
7768;BME280;3928;42.626;23.382;2022-09-30T08:24:17;94173.88;;;24.87;73.84
7768;BME280;3928;42.626;23.382;2022-09-30T08:26:45;94173.19;;;24.96;72.12
7768;BME280;3928;42.626;23.382;2022-09-30T08:29:13;94173.72;;;25.01;69.92
7768;BME280;3928;42.626;23.382;2022-09-30T08:31:40;94188.34;;;25.27;70.66
7768;BME280;3928;42.626;23.382;2022-09-30T08:34:07;94170.00;;;25.50;69.36
7768;BME280;3928;42.626;23.382;2022-09-30T08:36:34;94159.38;;;25.62;68.05
7768;BME280;3928;42.626;23.382;2022-09-30T08:39:01;94181.38;;;25.95;66.30
7768;BME280;3928;42.626;23.382;2022-09-30T08:41:54;94170.84;;;26.17;65.33
7768;BME280;3928;42.626;23.382;2022-09-30T08:44:38;94170.09;;;26.38;64.30
7768;BME280;3928;42.626;23.382;2022-09-30T08:47:15;94142.81;;;26.39;61.99
7768;BME280;3928;42.626;23.382;2022-09-30T08:49:56;94176.16;;;26.81;62.07
7768;BME280;3928;42.626;23.382;2022-09-30T08:52:32;94175.41;;;27.02;62.01
7768;BME280;3928;42.626;23.382;2022-09-30T08:54:59;94178.09;;;27.12;61.45
7768;BME280;3928;42.626;23.382;2022-09-30T08:57:35;94178.09;;;27.32;62.01
7768;BME280;3928;42.626;23.382;2022-09-30T09:00:06;94178.78;;;27.55;60.45
7768;BME280;3928;42.626;23.382;2022-09-30T09:02:42;94164.19;;;27.72;59.36
7768;BME280;3928;42.626;23.382;2022-09-30T09:05:16;94188.34;;;27.77;57.88
7768;BME280;3928;42.626;23.382;2022-09-30T09:07:51;94184.47;;;27.81;59.07
7768;BME280;3928;42.626;23.382;2022-09-30T09:10:26;94184.84;;;27.98;58.88
7768;BME280;3928;42.626;23.382;2022-09-30T09:13:08;94181.13;;;28.10;58.53
7768;BME280;3928;42.626;23.382;2022-09-30T09:15:53;94199.34;;;28.13;56.92
7768;BME280;3928;42.626;23.382;2022-09-30T09:21:22;94190.47;;;28.54;55.14
7768;BME280;3928;42.626;23.382;2022-09-30T09:24:00;94181.28;;;28.68;52.27
7768;BME280;3928;42.626;23.382;2022-09-30T09:26:31;94172.78;;;28.64;51.40
7768;BME280;3928;42.626;23.382;2022-09-30T09:29:11;94183.09;;;28.58;51.23
7768;BME280;3928;42.626;23.382;2022-09-30T09:31:46;94193.94;;;28.74;51.46
7768;BME280;3928;42.626;23.382;2022-09-30T09:34:13;94194.50;;;28.87;52.13
7768;BME280;3928;42.626;23.382;2022-09-30T09:36:52;94206.53;;;29.01;50.35
7768;BME280;3928;42.626;23.382;2022-09-30T09:39:41;94193.41;;;28.99;52.36
7768;BME280;3928;42.626;23.382;2022-09-30T09:42:27;94201.78;;;29.04;52.91
7768;BME280;3928;42.626;23.382;2022-09-30T09:45:02;94200.91;;;29.23;51.65
7768;BME280;3928;42.626;23.382;2022-09-30T09:47:31;94197.72;;;29.39;51.72
7768;BME280;3928;42.626;23.382;2022-09-30T09:50:00;94196.72;;;29.59;50.69
7768;BME280;3928;42.626;23.382;2022-09-30T09:52:40;94182.34;;;29.72;49.66
7768;BME280;3928;42.626;23.382;2022-09-30T09:55:11;94186.59;;;29.92;48.66
7768;BME280;3928;42.626;23.382;2022-09-30T09:57:38;94198.13;;;30.10;47.37
7768;BME280;3928;42.626;23.382;2022-09-30T10:00:08;94195.97;;;30.23;45.66
7768;BME280;3928;42.626;23.382;2022-09-30T10:03:01;94195.03;;;30.42;46.17
7768;BME280;3928;42.626;23.382;2022-09-30T10:05:30;94198.13;;;30.65;45.41
7768;BME280;3928;42.626;23.382;2022-09-30T10:08:13;94192.03;;;30.82;42.03
7768;BME280;3928;42.626;23.382;2022-09-30T10:10:45;94186.97;;;31.07;42.92
7768;BME280;3928;42.626;23.382;2022-09-30T10:13:18;94182.97;;;31.03;41.02
7768;BME280;3928;42.626;23.382;2022-09-30T10:15:48;94191.88;;;31.02;42.45
7768;BME280;3928;42.626;23.382;2022-09-30T10:18:21;94185.78;;;31.19;42.15
7768;BME280;3928;42.626;23.382;2022-09-30T10:20:51;94177.19;;;31.25;40.04
7768;BME280;3928;42.626;23.382;2022-09-30T10:23:21;94169.69;;;31.38;38.25
7768;BME280;3928;42.626;23.382;2022-09-30T10:25:57;94172.09;;;31.50;39.42
7768;BME280;3928;42.626;23.382;2022-09-30T10:28:27;94165.91;;;31.67;37.46
7768;BME280;3928;42.626;23.382;2022-09-30T10:30:58;94169.44;;;32.02;37.03
7768;BME280;3928;42.626;23.382;2022-09-30T10:33:30;94159.84;;;32.35;37.97
7768;BME280;3928;42.626;23.382;2022-09-30T10:36:05;94158.41;;;32.56;36.09
7768;BME280;3928;42.626;23.382;2022-09-30T10:38:34;94131.59;;;32.42;37.54
7768;BME280;3928;42.626;23.382;2022-09-30T10:41:03;94162.03;;;32.55;35.46
7768;BME280;3928;42.626;23.382;2022-09-30T10:43:36;94175.22;;;32.81;35.79
7768;BME280;3928;42.626;23.382;2022-09-30T10:46:07;94167.78;;;33.01;33.47
7768;BME280;3928;42.626;23.382;2022-09-30T10:48:37;94171.47;;;33.17;33.04
7768;BME280;3928;42.626;23.382;2022-09-30T10:51:05;94178.78;;;33.23;32.93
7768;BME280;3928;42.626;23.382;2022-09-30T10:53:47;94176.13;;;33.23;33.07
7768;BME280;3928;42.626;23.382;2022-09-30T10:56:34;94173.66;;;33.29;33.22
7768;BME280;3928;42.626;23.382;2022-09-30T10:59:08;94173.31;;;33.32;33.09
7768;BME280;3928;42.626;23.382;2022-09-30T11:01:46;94175.50;;;33.45;32.75
7768;BME280;3928;42.626;23.382;2022-09-30T11:04:21;94180.13;;;33.67;31.72
7768;BME280;3928;42.626;23.382;2022-09-30T11:06:57;94174.75;;;33.84;32.02
7768;BME280;3928;42.626;23.382;2022-09-30T11:09:33;94113.25;;;33.62;31.50
7768;BME280;3928;42.626;23.382;2022-09-30T11:12:04;94178.56;;;34.06;31.75
7768;BME280;3928;42.626;23.382;2022-09-30T11:14:40;94165.72;;;34.17;32.24
7768;BME280;3928;42.626;23.382;2022-09-30T11:17:23;94175.44;;;34.49;31.19
7768;BME280;3928;42.626;23.382;2022-09-30T11:19:56;94162.19;;;34.64;31.16
7768;BME280;3928;42.626;23.382;2022-09-30T11:22:32;94175.53;;;34.64;31.46
7768;BME280;3928;42.626;23.382;2022-09-30T11:25:02;94173.78;;;34.48;29.59
7768;BME280;3928;42.626;23.382;2022-09-30T11:27:39;94174.72;;;34.08;30.93
7768;BME280;3928;42.626;23.382;2022-09-30T11:30:15;94180.69;;;34.26;30.92
7768;BME280;3928;42.626;23.382;2022-09-30T11:32:58;94183.56;;;34.56;29.10
7768;BME280;3928;42.626;23.382;2022-09-30T11:35:38;94181.34;;;34.99;30.06
7768;BME280;3928;42.626;23.382;2022-09-30T11:38:19;94184.09;;;35.36;28.19
7768;BME280;3928;42.626;23.382;2022-09-30T11:40:53;94186.56;;;35.61;28.68
7768;BME280;3928;42.626;23.382;2022-09-30T11:43:31;94192.59;;;35.78;27.14
7768;BME280;3928;42.626;23.382;2022-09-30T11:46:16;94183.47;;;35.72;28.39
7768;BME280;3928;42.626;23.382;2022-09-30T11:48:56;94188.38;;;35.83;27.89
7768;BME280;3928;42.626;23.382;2022-09-30T11:51:34;94183.47;;;35.72;27.63
7768;BME280;3928;42.626;23.382;2022-09-30T11:54:19;94185.16;;;35.50;28.46
7768;BME280;3928;42.626;23.382;2022-09-30T11:56:54;94187.66;;;35.29;28.11
7768;BME280;3928;42.626;23.382;2022-09-30T11:59:27;94186.00;;;35.05;28.09
7768;BME280;3928;42.626;23.382;2022-09-30T12:01:57;94194.44;;;34.77;28.72
7768;BME280;3928;42.626;23.382;2022-09-30T12:04:30;94189.72;;;34.56;28.19
7768;BME280;3928;42.626;23.382;2022-09-30T12:07:03;94173.63;;;34.34;28.79
7768;BME280;3928;42.626;23.382;2022-09-30T12:09:50;94118.19;;;33.82;28.65
7768;BME280;3928;42.626;23.382;2022-09-30T12:12:19;94188.69;;;34.18;29.44
7768;BME280;3928;42.626;23.382;2022-09-30T12:14:48;94197.69;;;34.17;29.85
7768;BME280;3928;42.626;23.382;2022-09-30T12:17:21;94197.50;;;34.27;28.97
7768;BME280;3928;42.626;23.382;2022-09-30T12:19:54;94187.88;;;34.57;27.64
7768;BME280;3928;42.626;23.382;2022-09-30T12:22:26;94195.22;;;34.94;27.95
7768;BME280;3928;42.626;23.382;2022-09-30T12:24:55;94194.75;;;35.36;27.67
7768;BME280;3928;42.626;23.382;2022-09-30T12:27:24;94196.75;;;35.80;28.54
7768;BME280;3928;42.626;23.382;2022-09-30T12:29:59;94199.78;;;36.15;26.16
7768;BME280;3928;42.626;23.382;2022-09-30T12:33:15;94201.31;;;35.94;25.64
7768;BME280;3928;42.626;23.382;2022-09-30T12:36:22;94199.06;;;36.36;24.53
7768;BME280;3928;42.626;23.382;2022-09-30T12:39:13;94191.84;;;36.51;25.21
7768;BME280;3928;42.626;23.382;2022-09-30T12:42:03;94202.56;;;37.02;24.73
7768;BME280;3928;42.626;23.382;2022-09-30T12:45:07;94202.41;;;37.25;23.88
7768;BME280;3928;42.626;23.382;2022-09-30T12:47:45;94201.34;;;37.40;23.00
7768;BME280;3928;42.626;23.382;2022-09-30T12:50:15;94199.78;;;37.10;22.80
7768;BME280;3928;42.626;23.382;2022-09-30T12:52:45;94195.91;;;36.17;23.14
7768;BME280;3928;42.626;23.382;2022-09-30T12:55:21;94208.06;;;35.44;24.48
7768;BME280;3928;42.626;23.382;2022-09-30T12:57:51;94198.81;;;35.32;23.54
7768;BME280;3928;42.626;23.382;2022-09-30T13:00:24;94208.38;;;34.96;25.28
7768;BME280;3928;42.626;23.382;2022-09-30T13:02:55;94198.94;;;35.39;25.74
7768;BME280;3928;42.626;23.382;2022-09-30T13:05:59;94197.16;;;36.07;24.23
7768;BME280;3928;42.626;23.382;2022-09-30T13:08:40;94207.03;;;36.65;24.33
7768;BME280;3928;42.626;23.382;2022-09-30T13:11:30;94204.19;;;36.81;24.50
7768;BME280;3928;42.626;23.382;2022-09-30T13:14:11;94205.00;;;37.33;23.62
7768;BME280;3928;42.626;23.382;2022-09-30T13:16:59;94193.97;;;37.42;21.79
7768;BME280;3928;42.626;23.382;2022-09-30T13:19:33;94208.00;;;37.72;22.98
7768;BME280;3928;42.626;23.382;2022-09-30T13:25:19;94193.50;;;38.38;22.36
7768;BME280;3928;42.626;23.382;2022-09-30T13:27:47;94205.53;;;38.55;21.79
7768;BME280;3928;42.626;23.382;2022-09-30T13:31:14;94211.84;;;38.82;21.14
7768;BME280;3928;42.626;23.382;2022-09-30T13:33:45;94200.72;;;38.78;21.25
7768;BME280;3928;42.626;23.382;2022-09-30T13:36:25;94193.31;;;38.18;20.24
7768;BME280;3928;42.626;23.382;2022-09-30T13:39:16;94212.63;;;37.57;21.28
7768;BME280;3928;42.626;23.382;2022-09-30T13:41:47;94216.69;;;37.53;23.06
7768;BME280;3928;42.626;23.382;2022-09-30T13:44:19;94203.59;;;37.65;22.05
7768;BME280;3928;42.626;23.382;2022-09-30T13:46:50;94209.03;;;37.93;21.67